createdAt,value
2019-03-03T00:01:18.633Z,2.03
2019-03-03T00:03:47.580Z,1.92
2019-03-03T00:06:16.426Z,2.10
2019-03-03T00:08:45.350Z,1.87
2019-03-03T00:11:14.471Z,1.80
2019-03-03T00:13:43.300Z,2.10
2019-03-03T00:16:12.664Z,1.80
2019-03-03T00:18:42.889Z,1.80
2019-03-03T00:21:11.793Z,1.80
2019-03-03T00:23:40.674Z,2.12
2019-03-03T00:26:09.665Z,2.10
2019-03-03T00:28:39.005Z,2.00
2019-03-03T00:31:08.348Z,1.80
2019-03-03T00:33:37.397Z,2.12
2019-03-03T00:36:06.382Z,1.60
2019-03-03T00:38:50.016Z,1.62
2019-03-03T00:41:36.991Z,1.83
2019-03-03T00:44:15.712Z,2.22
2019-03-03T00:47:01.225Z,1.70
2019-03-03T00:49:36.731Z,1.70
2019-03-03T00:52:34.189Z,1.70
2019-03-03T00:55:25.194Z,1.80
2019-03-03T00:57:58.434Z,1.60
2019-03-03T01:00:37.867Z,1.92
2019-03-03T01:03:15.230Z,1.90
2019-03-03T01:05:56.426Z,2.17
2019-03-03T01:08:46.580Z,2.27
2019-03-03T01:11:34.615Z,1.57
2019-03-03T01:14:12.396Z,1.75
2019-03-03T01:16:55.788Z,1.80
2019-03-03T01:19:30.815Z,1.20
2019-03-03T01:22:24.979Z,1.53
2019-03-03T01:24:55.897Z,2.40
2019-03-03T01:27:25.924Z,1.67
2019-03-03T01:29:54.752Z,1.52
2019-03-03T01:32:23.764Z,1.82
2019-03-03T01:34:52.830Z,1.60
2019-03-03T01:37:22.028Z,2.00
2019-03-03T01:39:51.190Z,1.72
2019-03-03T01:42:20.230Z,1.60
2019-03-03T01:44:49.055Z,1.80
2019-03-03T01:47:18.119Z,1.45
2019-03-03T01:49:47.074Z,1.80
2019-03-03T01:52:16.455Z,1.30
2019-03-03T01:54:45.798Z,1.95
2019-03-03T01:57:14.623Z,2.22
2019-03-03T01:59:43.595Z,1.70
2019-03-03T02:02:13.011Z,1.60
2019-03-03T02:04:41.927Z,1.82
2019-03-03T02:07:10.936Z,2.12
2019-03-03T02:09:39.914Z,1.62
2019-03-03T02:12:08.997Z,1.60
2019-03-03T02:14:38.069Z,1.62
2019-03-03T02:17:08.360Z,1.50
2019-03-03T02:19:37.290Z,1.87
2019-03-03T02:22:06.851Z,1.70
2019-03-03T02:24:35.792Z,1.80
2019-03-03T02:27:05.014Z,1.70
2019-03-03T02:29:34.165Z,1.80
2019-03-03T02:32:04.968Z,1.82
2019-03-03T02:34:33.829Z,2.12
2019-03-03T02:37:02.776Z,1.80
2019-03-03T02:39:32.048Z,1.92
2019-03-03T02:42:00.932Z,1.85
2019-03-03T02:44:29.834Z,1.50
2019-03-03T02:46:58.700Z,1.70
2019-03-03T02:49:27.652Z,1.50
2019-03-03T02:51:56.662Z,1.90
2019-03-03T02:54:25.674Z,1.52
2019-03-03T02:56:55.062Z,1.30
2019-03-03T02:59:24.149Z,1.85
2019-03-03T03:01:56.533Z,1.62
2019-03-03T03:04:26.369Z,1.52
2019-03-03T03:07:00.663Z,1.52
2019-03-03T03:09:48.812Z,1.72
2019-03-03T03:12:29.529Z,2.10
2019-03-03T03:15:14.268Z,1.70
2019-03-03T03:17:53.357Z,1.65
2019-03-03T03:20:56.904Z,1.70
2019-03-03T03:23:35.527Z,1.80
2019-03-03T03:26:27.468Z,1.45
2019-03-03T03:29:30.636Z,1.80
2019-03-03T03:32:30.585Z,1.75
2019-03-03T03:35:17.808Z,1.70
2019-03-03T03:37:59.611Z,2.25
2019-03-03T03:40:46.627Z,1.95
2019-03-03T03:43:37.608Z,2.00
2019-03-03T03:46:13.888Z,1.60
2019-03-03T03:49:04.778Z,2.05
2019-03-03T03:51:58.857Z,1.52
2019-03-03T03:54:53.231Z,1.57
2019-03-03T03:57:32.648Z,2.00
2019-03-03T04:00:17.872Z,1.62
2019-03-03T04:03:07.639Z,1.82
2019-03-03T04:05:45.076Z,2.20
2019-03-03T04:08:23.752Z,1.80
2019-03-03T04:10:58.788Z,1.65
2019-03-03T04:13:34.601Z,1.80
2019-03-03T04:16:29.112Z,1.60
2019-03-03T04:19:03.259Z,1.52
2019-03-03T04:21:51.705Z,1.52
2019-03-03T04:24:32.322Z,1.72
2019-03-03T04:27:12.778Z,1.90
2019-03-03T04:29:47.456Z,1.72
2019-03-03T04:32:41.300Z,1.98
2019-03-03T04:35:29.071Z,1.85
2019-03-03T04:38:12.685Z,1.45
2019-03-03T04:40:49.898Z,1.55
2019-03-03T04:43:32.731Z,2.20
2019-03-03T04:46:14.442Z,1.95
2019-03-03T04:49:11.708Z,1.45
2019-03-03T04:52:03.196Z,1.65
2019-03-03T04:54:51.111Z,1.75
2019-03-03T04:57:32.700Z,1.85
2019-03-03T05:00:16.893Z,1.52
2019-03-03T05:03:04.902Z,1.85
2019-03-03T05:05:40.139Z,1.80
2019-03-03T05:08:17.419Z,1.70
2019-03-03T05:10:59.095Z,1.82
2019-03-03T05:13:32.612Z,1.85
2019-03-03T05:16:19.411Z,2.22
2019-03-03T05:19:19.903Z,1.90
2019-03-03T05:21:48.845Z,1.65
2019-03-03T05:24:17.675Z,2.33
2019-03-03T05:26:46.662Z,1.77
2019-03-03T05:29:15.695Z,2.17
2019-03-03T05:31:45.017Z,1.77
2019-03-03T05:34:13.835Z,1.65
2019-03-03T05:36:42.817Z,2.37
2019-03-03T05:39:11.711Z,1.85
2019-03-03T05:41:40.814Z,2.02
2019-03-03T05:44:09.717Z,1.95
2019-03-03T05:46:38.618Z,1.62
2019-03-03T05:49:07.567Z,2.35
2019-03-03T05:51:36.722Z,2.05
2019-03-03T05:54:05.816Z,1.67
2019-03-03T05:56:35.164Z,1.82
2019-03-03T05:59:04.214Z,1.77
2019-03-03T06:01:33.578Z,1.72
2019-03-03T06:04:02.861Z,1.55
2019-03-03T06:06:31.688Z,1.62
2019-03-03T06:09:00.532Z,1.70
2019-03-03T06:11:29.491Z,1.55
2019-03-03T06:13:58.454Z,2.12
2019-03-03T06:16:30.342Z,1.95
2019-03-03T06:18:59.214Z,1.95
2019-03-03T06:21:28.190Z,1.92
2019-03-03T06:23:57.494Z,1.70
2019-03-03T06:26:26.498Z,1.95
2019-03-03T06:28:55.441Z,1.90
2019-03-03T06:31:24.310Z,1.37
2019-03-03T06:33:53.654Z,2.10
2019-03-03T06:36:22.756Z,1.90
2019-03-03T06:38:51.838Z,1.55
2019-03-03T06:41:20.719Z,1.80
2019-03-03T06:43:49.721Z,1.65
2019-03-03T06:46:18.785Z,1.90
2019-03-03T06:48:47.600Z,1.60
2019-03-03T06:51:16.818Z,2.17
2019-03-03T06:53:45.785Z,2.02
2019-03-03T06:56:14.691Z,1.32
2019-03-03T06:58:43.652Z,2.15
2019-03-03T07:01:12.524Z,1.60
2019-03-03T07:03:41.495Z,1.95
2019-03-03T07:06:10.830Z,2.00
2019-03-03T07:08:39.876Z,1.25
2019-03-03T07:11:10.129Z,1.50
2019-03-03T07:13:39.235Z,1.77
2019-03-03T07:16:08.255Z,2.37
2019-03-03T07:18:37.127Z,1.67
2019-03-03T07:21:06.126Z,2.07
2019-03-03T07:23:35.562Z,2.20
2019-03-03T07:26:04.616Z,2.30
2019-03-03T07:28:33.494Z,1.70
2019-03-03T07:31:02.430Z,2.60
2019-03-03T07:33:33.154Z,1.75
2019-03-03T07:36:02.208Z,1.57
2019-03-03T07:38:31.151Z,1.87
2019-03-03T07:41:00.069Z,1.97
2019-03-03T07:43:29.450Z,2.17
2019-03-03T07:45:58.459Z,2.00
2019-03-03T07:48:27.473Z,2.60
2019-03-03T07:50:56.398Z,1.67
2019-03-03T07:53:26.402Z,2.30
2019-03-03T07:55:55.271Z,1.73
2019-03-03T07:58:24.566Z,1.92
2019-03-03T08:00:53.570Z,2.10
2019-03-03T08:03:22.702Z,1.92
2019-03-03T08:05:51.679Z,2.00
2019-03-03T08:08:20.628Z,2.00
2019-03-03T08:10:49.488Z,2.00
2019-03-03T08:13:18.764Z,2.00
2019-03-03T08:15:47.659Z,2.20
2019-03-03T08:18:16.808Z,2.42
2019-03-03T08:20:45.960Z,1.70
2019-03-03T08:23:15.001Z,1.77
2019-03-03T08:25:44.063Z,1.77
2019-03-03T08:28:12.974Z,1.95
2019-03-03T08:30:41.883Z,2.13
2019-03-03T08:33:10.828Z,1.95
2019-03-03T08:35:39.790Z,2.80
2019-03-03T08:38:08.859Z,1.75
2019-03-03T08:40:38.075Z,2.00
2019-03-03T08:43:24.771Z,2.12
2019-03-03T08:46:21.892Z,1.73
2019-03-03T08:49:16.670Z,1.70
2019-03-03T08:52:04.150Z,1.72
2019-03-03T08:54:51.259Z,1.62
2019-03-03T08:57:34.434Z,2.10
2019-03-03T09:00:28.146Z,1.72
2019-03-03T09:03:13.293Z,1.60
2019-03-03T09:05:58.096Z,1.30
2019-03-03T09:09:01.200Z,1.00
2019-03-03T09:11:54.859Z,1.40
2019-03-03T09:14:48.722Z,0.90
2019-03-03T09:17:37.044Z,1.10
2019-03-03T09:20:11.543Z,1.00
2019-03-03T09:23:02.496Z,1.20
2019-03-03T09:25:59.671Z,0.80
2019-03-03T09:28:49.518Z,1.20
2019-03-03T09:31:27.174Z,1.00
2019-03-03T09:34:16.994Z,0.88
2019-03-03T09:37:05.115Z,0.87
2019-03-03T09:39:52.383Z,0.68
2019-03-03T09:42:49.687Z,0.70
2019-03-03T09:45:31.214Z,1.00
2019-03-03T09:48:18.286Z,0.80
2019-03-03T09:51:09.299Z,1.17
2019-03-03T09:53:45.228Z,0.80
2019-03-03T09:56:42.037Z,1.00
2019-03-03T09:59:20.518Z,0.95
2019-03-03T10:02:07.318Z,0.90
2019-03-03T10:04:52.334Z,1.10
2019-03-03T10:07:39.719Z,1.10
2019-03-03T10:10:16.582Z,0.95
2019-03-03T10:12:58.759Z,0.88
2019-03-03T10:15:44.711Z,1.05
2019-03-03T10:18:32.268Z,0.90
2019-03-03T10:21:16.467Z,0.90
2019-03-03T10:24:03.580Z,1.20
2019-03-03T10:26:48.704Z,0.83
2019-03-03T10:29:37.037Z,0.80
2019-03-03T10:32:13.143Z,0.83
2019-03-03T10:34:56.909Z,0.80
2019-03-03T10:37:54.873Z,0.50
2019-03-03T10:40:46.826Z,0.82
2019-03-03T10:43:41.128Z,0.75
2019-03-03T10:46:35.398Z,0.70
2019-03-03T10:49:15.911Z,0.80
2019-03-03T10:52:16.256Z,0.50
2019-03-03T10:54:53.286Z,0.68
2019-03-03T10:57:36.425Z,0.50
2019-03-03T11:00:22.954Z,1.10
2019-03-03T11:03:17.104Z,0.65
2019-03-03T11:06:06.479Z,0.60
2019-03-03T11:09:00.494Z,0.70
2019-03-03T11:11:49.093Z,0.70
2019-03-03T11:14:30.294Z,0.60
2019-03-03T11:17:18.651Z,0.67
2019-03-03T11:20:09.852Z,0.70
2019-03-03T11:23:01.097Z,0.60
2019-03-03T11:25:51.894Z,0.60
2019-03-03T11:28:30.529Z,0.50
2019-03-03T11:31:06.431Z,0.50
2019-03-03T11:34:00.319Z,0.90
2019-03-03T11:36:43.059Z,0.60
2019-03-03T11:39:34.493Z,0.50
2019-03-03T11:42:14.302Z,0.50
2019-03-03T11:44:53.731Z,0.80
2019-03-03T11:47:44.584Z,0.70
2019-03-03T11:50:29.211Z,0.75
2019-03-03T11:53:14.100Z,0.50
2019-03-03T11:56:17.774Z,0.50
2019-03-03T11:58:53.647Z,0.70
2019-03-03T12:01:51.115Z,0.73
2019-03-03T12:04:42.231Z,0.70
2019-03-03T12:07:22.445Z,0.70
2019-03-03T12:10:13.419Z,0.50
2019-03-03T12:12:53.799Z,0.68
2019-03-03T12:15:34.448Z,0.75
2019-03-03T12:18:14.058Z,0.62
2019-03-03T12:20:59.700Z,0.53
2019-03-03T12:23:37.659Z,0.72
2019-03-03T12:26:35.181Z,0.60
2019-03-03T12:29:32.543Z,0.60
2019-03-03T12:32:29.977Z,0.70
2019-03-03T12:35:20.945Z,0.75
2019-03-03T12:38:05.382Z,0.90
2019-03-03T12:40:59.254Z,1.17
2019-03-03T12:43:56.941Z,0.90
2019-03-03T12:46:36.326Z,0.90
2019-03-03T12:49:13.823Z,0.60
2019-03-03T12:51:50.462Z,0.70
2019-03-03T12:54:29.435Z,0.75
2019-03-03T12:57:29.502Z,0.72
2019-03-03T13:00:16.404Z,0.50
2019-03-03T13:03:12.949Z,0.80
2019-03-03T13:05:49.806Z,0.50
2019-03-03T13:08:32.964Z,0.68
2019-03-03T13:11:11.237Z,0.40
2019-03-03T13:14:01.959Z,0.82
2019-03-03T13:16:43.094Z,0.90
2019-03-03T13:19:25.355Z,0.80
2019-03-03T13:22:04.658Z,0.80
2019-03-03T13:24:59.747Z,1.07
2019-03-03T13:27:45.054Z,0.90
2019-03-03T13:30:45.470Z,0.80
2019-03-03T13:33:32.179Z,0.57
2019-03-03T13:36:18.668Z,1.00
2019-03-03T13:39:09.575Z,0.60
2019-03-03T13:41:54.748Z,0.70
2019-03-03T13:44:23.642Z,1.00
2019-03-03T13:46:52.694Z,0.80
2019-03-03T13:49:21.730Z,1.10
2019-03-03T13:51:50.788Z,1.00
2019-03-03T13:54:19.990Z,0.90
2019-03-03T13:56:49.155Z,0.97
2019-03-03T13:59:18.528Z,1.10
2019-03-03T14:01:47.623Z,0.70
2019-03-03T14:04:16.558Z,0.60
2019-03-03T14:06:46.073Z,0.80
2019-03-03T14:09:14.930Z,0.90
2019-03-03T14:11:43.934Z,0.70
2019-03-03T14:14:12.778Z,0.90
2019-03-03T14:16:41.746Z,0.80
2019-03-03T14:19:10.788Z,0.42
2019-03-03T14:21:40.038Z,1.00
2019-03-03T14:24:09.119Z,0.80
2019-03-03T14:26:38.039Z,0.60
2019-03-03T14:29:07.052Z,0.68
2019-03-03T14:31:36.787Z,0.87
2019-03-03T14:34:05.824Z,0.57
2019-03-03T14:36:34.646Z,1.00
2019-03-03T14:39:05.367Z,0.82
2019-03-03T14:41:34.274Z,0.80
2019-03-03T14:44:03.693Z,0.70
2019-03-03T14:46:33.224Z,0.60
2019-03-03T14:49:02.164Z,0.75
2019-03-03T14:51:31.224Z,0.77
2019-03-03T14:54:00.803Z,0.80
2019-03-03T14:56:29.854Z,0.80
2019-03-03T14:58:58.882Z,0.80
2019-03-03T15:01:28.290Z,0.80
2019-03-03T15:03:57.100Z,1.00
2019-03-03T15:06:26.094Z,1.00
2019-03-03T15:08:55.400Z,0.90
2019-03-03T15:11:24.518Z,1.00
2019-03-03T15:13:53.550Z,0.90
2019-03-03T15:16:22.958Z,1.10
2019-03-03T15:18:51.987Z,0.80
2019-03-03T15:21:25.072Z,1.00
2019-03-03T15:23:52.090Z,0.93
2019-03-03T15:26:21.471Z,1.10
2019-03-03T15:28:50.538Z,0.88
2019-03-03T15:31:19.555Z,1.42
2019-03-03T15:33:48.568Z,1.10
2019-03-03T15:36:17.582Z,0.98
2019-03-03T15:38:46.980Z,1.10
2019-03-03T15:41:16.202Z,1.13
2019-03-03T15:43:45.146Z,1.40
2019-03-03T15:46:14.876Z,1.50
2019-03-03T15:48:43.891Z,1.03
2019-03-03T15:51:12.885Z,1.33
2019-03-03T15:53:42.247Z,1.50
2019-03-03T15:56:11.243Z,1.23
2019-03-03T15:58:40.458Z,1.50
2019-03-03T16:01:16.073Z,1.40
2019-03-03T16:03:45.090Z,1.30
2019-03-03T16:06:13.999Z,1.50
2019-03-03T16:08:43.273Z,1.40
2019-03-03T16:11:12.234Z,1.13
2019-03-03T16:13:41.290Z,1.43
2019-03-03T16:16:10.778Z,2.43
2019-03-03T16:18:39.779Z,7.17
2019-03-03T16:21:08.818Z,3.15
2019-03-03T16:23:37.782Z,5.20
2019-03-03T16:26:07.382Z,4.77
2019-03-03T16:28:36.454Z,2.45
2019-03-03T16:31:05.432Z,1.60
2019-03-03T16:33:34.489Z,1.72
2019-03-03T16:36:03.818Z,1.23
2019-03-03T16:38:33.244Z,1.40
2019-03-03T16:41:02.069Z,1.87
2019-03-03T16:43:31.221Z,1.70
2019-03-03T16:46:00.159Z,1.57
2019-03-03T16:48:28.994Z,1.90
2019-03-03T16:50:57.914Z,1.57
2019-03-03T16:53:26.844Z,1.53
2019-03-03T16:55:55.829Z,1.90
2019-03-03T16:58:24.743Z,1.70
2019-03-03T17:00:54.049Z,1.90
2019-03-03T17:03:23.913Z,1.67
2019-03-03T17:05:53.444Z,1.43
2019-03-03T17:08:23.075Z,1.90
2019-03-03T17:10:52.476Z,1.67
2019-03-03T17:13:21.686Z,2.60
2019-03-03T17:15:50.823Z,1.90
2019-03-03T17:18:19.687Z,1.90
2019-03-03T17:20:48.656Z,1.93
2019-03-03T17:23:17.567Z,1.63
2019-03-03T17:25:46.915Z,1.90
2019-03-03T17:28:15.806Z,1.70
2019-03-03T17:30:44.752Z,2.03
2019-03-03T17:33:13.719Z,2.10
2019-03-03T17:35:42.656Z,1.90
2019-03-03T17:38:12.524Z,2.07
2019-03-03T17:40:41.501Z,2.50
2019-03-03T17:43:10.434Z,2.30
2019-03-03T17:45:39.531Z,2.27
2019-03-03T17:48:08.565Z,2.73
2019-03-03T17:50:37.521Z,1.70
2019-03-03T17:53:06.739Z,2.07
2019-03-03T17:55:35.579Z,2.50
2019-03-03T17:58:04.654Z,4.37
2019-03-03T18:00:34.992Z,2.53
2019-03-03T18:03:04.262Z,2.20
2019-03-03T18:05:33.285Z,1.90
2019-03-03T18:08:02.515Z,1.77
2019-03-03T18:10:33.551Z,2.23
2019-03-03T18:13:02.970Z,3.13
2019-03-03T18:15:32.005Z,4.77
2019-03-03T18:18:01.180Z,2.77
2019-03-03T18:20:30.135Z,3.43
2019-03-03T18:22:59.130Z,2.90
2019-03-03T18:25:28.291Z,2.17
2019-03-03T18:27:57.231Z,2.27
2019-03-03T18:30:26.326Z,2.23
2019-03-03T18:32:55.380Z,1.87
2019-03-03T18:35:25.390Z,1.90
2019-03-03T18:37:54.736Z,1.73
2019-03-03T18:40:24.153Z,2.00
2019-03-03T18:42:53.186Z,1.73
2019-03-03T18:45:22.290Z,2.20
2019-03-03T18:47:51.357Z,2.27
2019-03-03T18:50:20.355Z,2.33
2019-03-03T18:52:49.278Z,2.47
2019-03-03T18:55:18.616Z,2.73
2019-03-03T18:57:47.660Z,2.10
2019-03-03T19:00:22.844Z,2.07
2019-03-03T19:02:52.365Z,2.33
2019-03-03T19:05:21.383Z,2.40
2019-03-03T19:07:50.479Z,2.07
2019-03-03T19:10:19.915Z,2.27
2019-03-03T19:12:48.953Z,2.13
2019-03-03T19:15:18.449Z,1.80
2019-03-03T19:17:47.490Z,2.10
2019-03-03T19:20:17.798Z,2.20
2019-03-03T19:22:46.847Z,2.10
2019-03-03T19:25:16.557Z,2.13
2019-03-03T19:27:45.947Z,1.87
2019-03-03T19:30:19.958Z,2.13
2019-03-03T19:33:01.239Z,2.03
2019-03-03T19:35:30.234Z,2.30
2019-03-03T19:37:59.294Z,1.97
2019-03-03T19:40:28.754Z,2.00
2019-03-03T19:42:58.056Z,2.73
2019-03-03T19:45:29.166Z,2.17
2019-03-03T19:47:58.331Z,2.30
2019-03-03T19:50:27.310Z,2.13
2019-03-03T19:52:56.311Z,2.43
2019-03-03T19:55:25.226Z,2.60
2019-03-03T19:57:54.615Z,2.73
2019-03-03T20:00:35.036Z,1.97
2019-03-03T20:02:57.626Z,2.37
2019-03-03T20:05:26.666Z,2.20
2019-03-03T20:07:56.085Z,2.30
2019-03-03T20:10:25.427Z,2.10
2019-03-03T20:12:54.524Z,1.90
2019-03-03T20:15:23.563Z,1.67
2019-03-03T20:17:52.593Z,2.00
2019-03-03T20:20:21.719Z,1.97
2019-03-03T20:22:50.610Z,1.83
2019-03-03T20:25:19.588Z,1.77
2019-03-03T20:27:48.521Z,2.33
2019-03-03T20:30:18.444Z,1.90
2019-03-03T20:32:47.471Z,1.77
2019-03-03T20:35:16.693Z,1.60
2019-03-03T20:37:46.066Z,1.90
2019-03-03T20:40:15.584Z,1.37
2019-03-03T20:42:44.572Z,1.43
2019-03-03T20:45:15.982Z,1.30
2019-03-03T20:47:44.896Z,1.53
2019-03-03T20:50:16.352Z,1.23
2019-03-03T20:52:45.980Z,1.60
2019-03-03T20:55:16.240Z,1.40
2019-03-03T20:57:45.162Z,1.20
2019-03-03T21:00:16.891Z,1.57
2019-03-03T21:02:45.915Z,1.73
2019-03-03T21:05:14.932Z,1.57
2019-03-03T21:07:50.968Z,1.50
2019-03-03T21:10:16.400Z,1.60
2019-03-03T21:12:45.504Z,1.50
2019-03-03T21:15:14.865Z,1.80
2019-03-03T21:17:44.004Z,1.67
2019-03-03T21:20:14.489Z,1.33
2019-03-03T21:22:43.788Z,1.43
2019-03-03T21:25:13.005Z,1.30
2019-03-03T21:27:42.015Z,1.73
2019-03-03T21:30:16.522Z,1.40
2019-03-03T21:32:45.398Z,1.50
2019-03-03T21:35:14.441Z,1.30
2019-03-03T21:37:43.403Z,1.20
2019-03-03T21:40:13.739Z,1.30
2019-03-03T21:42:43.055Z,1.37
2019-03-03T21:45:13.606Z,1.57
2019-03-03T21:47:42.658Z,1.40
2019-03-03T21:50:13.956Z,1.40
2019-03-03T21:52:42.898Z,1.43
2019-03-03T21:55:12.034Z,1.50
2019-03-03T21:57:41.381Z,1.20
2019-03-03T22:00:20.231Z,0.90
2019-03-03T22:02:49.084Z,1.30
2019-03-03T22:05:18.371Z,1.40
2019-03-03T22:07:47.426Z,1.10
2019-03-03T22:10:16.319Z,1.20
2019-03-03T22:12:45.293Z,1.20
2019-03-03T22:15:14.637Z,1.33
2019-03-03T22:17:43.585Z,1.03
2019-03-03T22:20:12.519Z,1.17
2019-03-03T22:22:41.499Z,1.47
2019-03-03T22:25:10.562Z,1.30
2019-03-03T22:27:39.544Z,1.40
2019-03-03T22:30:09.019Z,1.10
2019-03-03T22:32:37.865Z,1.50
2019-03-03T22:35:07.156Z,1.40
2019-03-03T22:37:36.077Z,1.40
2019-03-03T22:40:05.418Z,1.90
2019-03-03T22:42:34.292Z,1.50
2019-03-03T22:45:03.320Z,1.47
2019-03-03T22:47:32.255Z,1.43
2019-03-03T22:50:01.122Z,1.10
2019-03-03T22:52:30.102Z,1.30
2019-03-03T22:54:59.148Z,1.70
2019-03-03T22:57:28.020Z,1.67
2019-03-03T22:59:57.319Z,1.50
2019-03-03T23:02:26.997Z,1.70
2019-03-03T23:05:16.636Z,1.70
2019-03-03T23:08:05.799Z,1.90
2019-03-03T23:11:12.215Z,1.70
2019-03-03T23:13:59.088Z,1.60
2019-03-03T23:17:19.523Z,1.60
2019-03-03T23:19:59.672Z,1.50
2019-03-03T23:23:31.248Z,1.70
2019-03-03T23:26:00.446Z,1.40
2019-03-03T23:28:29.484Z,1.60
2019-03-03T23:30:58.657Z,1.63
2019-03-03T23:33:27.528Z,2.00
2019-03-03T23:35:56.534Z,1.93
2019-03-03T23:38:25.541Z,1.63
2019-03-03T23:40:54.575Z,1.90
2019-03-03T23:43:23.550Z,1.37
2019-03-03T23:45:52.612Z,1.90
2019-03-03T23:48:21.871Z,1.50
2019-03-03T23:50:50.848Z,1.70
2019-03-03T23:53:19.990Z,1.47
2019-03-03T23:55:48.902Z,1.50
2019-03-03T23:58:17.806Z,1.47
